Time;durP1;ratioP1;P1;durP2;ratioP2;P2;SDS_P1;SDS_P2;PMS_P1;PMS_P2;Temp;Humidity;BMP_temperature;BMP_pressure;BME280_temperature;BME280_humidity;BME280_pressure;Samples;Min_cycle;Max_cycle;Signal;HPM_P1;HPM_P2
2022/06/17 00:02:13;;;;;;;3.58;2.40;;;17.80;99.90;;;;;;5019242;28;20181;-41
2022/06/17 00:04:38;;;;;;;4.10;2.42;;;17.80;99.90;;;;;;5035242;28;20526;-40
2022/06/17 00:07:13;;;;;;;3.63;2.45;;;17.70;99.90;;;;;;5035725;28;20190;-41
2022/06/17 00:09:39;;;;;;;5.00;2.20;;;17.70;99.90;;;;;;5018701;28;20205;-41
2022/06/17 00:12:11;;;;;;;3.13;2.30;;;17.70;99.90;;;;;;5052742;28;20214;-41
2022/06/17 00:17:22;;;;;;;2.83;2.42;;;17.60;99.90;;;;;;5035643;28;20190;-39
2022/06/17 00:19:47;;;;;;;2.80;2.40;;;17.50;99.90;;;;;;5053774;28;20559;-41
2022/06/17 00:22:13;;;;;;;3.37;2.60;;;17.40;99.90;;;;;;5035282;28;20232;-42
2022/06/17 00:24:39;;;;;;;3.97;2.20;;;17.40;99.90;;;;;;5018790;28;20214;-41
2022/06/17 00:27:09;;;;;;;3.63;2.33;;;17.40;99.90;;;;;;5053037;28;20197;-42
2022/06/17 00:29:35;;;;;;;2.72;2.30;;;17.40;99.90;;;;;;5018581;28;20212;-39
2022/06/17 00:32:01;;;;;;;3.28;2.22;;;17.40;99.90;;;;;;5034892;28;20180;-41
2022/06/17 00:34:27;;;;;;;2.93;2.40;;;17.40;99.90;;;;;;5035048;28;20228;-41
2022/06/17 00:36:57;;;;;;;3.28;2.30;;;17.50;99.90;;;;;;5035251;28;20182;-40
2022/06/17 00:39:27;;;;;;;3.13;2.77;;;17.50;99.90;;;;;;5018466;28;20256;-42
2022/06/17 00:41:57;;;;;;;5.10;2.83;;;17.50;99.90;;;;;;5035257;28;20212;-42
2022/06/17 00:44:51;;;;;;;3.10;2.80;;;17.50;99.90;;;;;;5034422;28;20208;-42
2022/06/17 00:47:20;;;;;;;4.80;2.50;;;17.60;99.90;;;;;;5018225;28;20275;-41
2022/06/17 00:49:55;;;;;;;6.15;2.65;;;17.50;99.90;;;;;;5052688;28;20200;-41
2022/06/17 00:52:29;;;;;;;3.35;2.95;;;17.50;99.90;;;;;;5018294;28;20530;-42
2022/06/17 00:55:16;;;;;;;3.05;2.60;;;17.50;99.90;;;;;;5018079;28;20250;-42
2022/06/17 00:57:43;;;;;;;2.63;2.38;;;17.50;99.90;;;;;;5034992;28;20188;-40
2022/06/17 01:00:23;;;;;;;2.67;2.47;;;17.50;99.90;;;;;;5034467;28;20209;-42
2022/06/17 01:03:00;;;;;;;3.20;2.90;;;17.40;99.90;;;;;;5018266;28;20174;-42
2022/06/17 01:05:34;;;;;;;3.95;3.20;;;17.40;99.90;;;;;;5034750;28;20197;-41
2022/06/17 01:09:56;;;;;;;3.55;3.05;;;17.30;99.90;;;;;;5034189;28;20545;-40
2022/06/17 01:11:05;;;;;;;3.30;2.90;;;17.20;99.90;;;;;;5034281;28;20232;-41
2022/06/17 01:13:31;;;;;;;4.22;3.05;;;17.20;99.90;;;;;;5017798;28;20197;-40
2022/06/17 01:15:57;;;;;;;3.40;2.90;;;17.10;99.90;;;;;;5034205;28;20177;-41
2022/06/17 01:18:22;;;;;;;4.77;2.70;;;17.10;99.90;;;;;;5017431;28;20219;-41
2022/06/17 01:21:07;;;;;;;2.90;2.60;;;17.10;99.90;;;;;;5018823;28;20241;-41
2022/06/17 01:23:33;;;;;;;3.75;2.60;;;17.10;99.90;;;;;;5034468;28;20247;-42
2022/06/17 01:25:59;;;;;;;2.97;2.77;;;17.00;99.90;;;;;;5017339;28;20309;-40
2022/06/17 01:28:25;;;;;;;3.27;2.43;;;17.00;99.90;;;;;;5017398;28;20197;-42
2022/06/17 01:30:54;;;;;;;2.67;2.47;;;16.80;99.90;;;;;;5017247;28;20185;-41
2022/06/17 01:33:28;;;;;;;3.20;2.60;;;16.70;99.90;;;;;;5017777;28;20182;-41
2022/06/17 01:36:20;;;;;;;3.43;2.60;;;16.60;99.90;;;;;;5051134;28;20174;-42
2022/06/17 01:38:52;;;;;;;4.50;3.00;;;16.50;99.90;;;;;;5023386;28;20300;-42
2022/06/17 01:41:23;;;;;;;4.17;2.83;;;16.40;99.90;;;;;;5017448;28;20189;-39
2022/06/17 01:43:53;;;;;;;7.10;3.27;;;16.30;99.90;;;;;;5033834;28;20200;-41
2022/06/17 01:46:23;;;;;;;4.43;3.20;;;16.30;99.90;;;;;;5033867;28;20174;-41
2022/06/17 01:49:03;;;;;;;3.87;3.33;;;16.20;99.90;;;;;;5017360;28;20708;-40
2022/06/17 01:51:32;;;;;;;5.33;3.00;;;16.20;99.90;;;;;;5033749;28;20185;-40
2022/06/17 01:54:05;;;;;;;3.40;3.10;;;16.30;99.90;;;;;;5033489;28;20182;-41
2022/06/17 01:56:34;;;;;;;4.43;3.13;;;16.30;99.90;;;;;;5033616;28;20217;-38
2022/06/17 01:59:13;;;;;;;3.73;3.10;;;16.30;99.90;;;;;;5033419;28;20292;-42
2022/06/17 02:01:43;;;;;;;4.63;3.27;;;16.20;99.90;;;;;;5017363;28;20178;-41
2022/06/17 02:04:12;;;;;;;3.07;2.73;;;16.10;99.90;;;;;;5016740;28;20185;-41
2022/06/17 02:06:50;;;;;;;3.10;2.80;;;16.10;99.90;;;;;;5032772;28;20189;-41
2022/06/17 02:09:17;;;;;;;3.40;2.67;;;16.10;99.90;;;;;;4997487;28;20280;-41
2022/06/17 02:11:46;;;;;;;3.43;2.80;;;16.00;99.90;;;;;;5003528;28;20218;-42
2022/06/17 02:14:16;;;;;;;3.20;2.90;;;15.90;99.90;;;;;;5029853;28;20183;-42
2022/06/17 02:17:08;;;;;;;3.80;3.23;;;15.80;99.90;;;;;;5033697;28;20187;-42
2022/06/17 02:19:50;;;;;;;3.73;3.13;;;15.60;99.90;;;;;;5018946;28;20223;-41
2022/06/17 02:22:29;;;;;;;4.13;3.20;;;15.50;99.90;;;;;;5016574;28;20177;-41
2022/06/17 02:25:07;;;;;;;4.63;3.10;;;15.40;99.90;;;;;;5033158;28;20193;-41
2022/06/17 02:27:34;;;;;;;5.53;3.00;;;15.30;99.90;;;;;;5033060;28;20227;-41
2022/06/17 02:30:02;;;;;;;6.17;3.30;;;15.20;99.90;;;;;;5015995;28;20644;-41
2022/06/17 02:32:31;;;;;;;3.10;2.80;;;15.10;99.90;;;;;;5032942;28;20186;-41
2022/06/17 02:35:04;;;;;;;3.57;2.77;;;15.00;99.90;;;;;;5015956;28;20185;-42
2022/06/17 02:37:32;;;;;;;4.90;2.73;;;14.90;99.90;;;;;;5032971;28;20196;-37
2022/06/17 02:40:00;;;;;;;3.93;3.03;;;15.00;99.90;;;;;;5032381;28;20204;-42
2022/06/17 02:42:30;;;;;;;2.87;2.53;;;15.00;99.90;;;;;;5032948;28;20224;-41
2022/06/17 02:45:05;;;;;;;4.60;2.60;;;15.10;99.90;;;;;;5016071;28;20187;-41
2022/06/17 02:47:32;;;;;;;3.37;2.97;;;15.10;99.90;;;;;;5032933;28;20189;-41
2022/06/17 02:49:59;;;;;;;5.10;2.90;;;15.20;99.90;;;;;;5032537;28;20214;-40
2022/06/17 02:52:36;;;;;;;4.83;3.03;;;15.40;99.90;;;;;;5016353;28;20205;-40
2022/06/17 02:55:33;;;;;;;4.60;2.87;;;15.40;99.90;;;;;;5032917;28;20272;-39
2022/06/17 02:58:12;;;;;;;6.97;3.30;;;15.50;99.90;;;;;;5031610;28;20178;-41
2022/06/17 03:00:39;;;;;;;3.30;2.83;;;15.50;99.90;;;;;;5032992;28;20177;-40
2022/06/17 03:03:09;;;;;;;3.30;3.00;;;15.50;99.90;;;;;;5016612;28;20213;-40
2022/06/17 03:05:41;;;;;;;4.30;3.20;;;15.40;99.90;;;;;;5032291;28;20201;-41
2022/06/17 03:08:21;;;;;;;3.40;3.10;;;15.40;99.90;;;;;;5032437;28;20288;-41
2022/06/17 03:10:48;;;;;;;4.03;3.03;;;15.50;99.90;;;;;;5032417;28;20289;-41
2022/06/17 03:13:20;;;;;;;4.43;3.17;;;15.40;99.90;;;;;;5032752;28;20204;-41
2022/06/17 03:15:49;;;;;;;5.60;3.43;;;15.30;99.90;;;;;;5032156;28;20216;-40
2022/06/17 03:18:16;;;;;;;3.80;3.00;;;15.10;99.90;;;;;;5012699;28;20187;-40
2022/06/17 03:20:47;;;;;;;3.97;3.00;;;15.10;99.90;;;;;;5012864;28;20237;-39
2022/06/17 03:23:20;;;;;;;3.17;2.87;;;15.00;99.90;;;;;;5031608;28;20226;-39
2022/06/17 03:26:10;;;;;;;5.73;3.60;;;14.90;99.90;;;;;;5032085;28;20189;-41
2022/06/17 03:28:48;;;;;;;3.33;2.80;;;14.90;99.90;;;;;;5012897;28;20198;-38
2022/06/17 03:31:38;;;;;;;3.30;3.00;;;14.90;99.90;;;;;;5012850;28;20175;-40
2022/06/17 03:34:08;;;;;;;3.77;3.43;;;14.80;99.90;;;;;;5012707;28;20254;-41
2022/06/17 03:36:45;;;;;;;5.13;3.30;;;14.80;99.90;;;;;;5002936;28;20277;-40
2022/06/17 03:39:31;;;;;;;3.53;2.90;;;14.80;99.90;;;;;;5032329;28;20200;-42
2022/06/17 03:42:05;;;;;;;3.40;3.10;;;14.70;99.90;;;;;;5032379;28;20336;-40
2022/06/17 03:44:43;;;;;;;5.00;2.90;;;14.80;99.90;;;;;;5032388;28;20227;-41
2022/06/17 03:47:20;;;;;;;3.17;2.87;;;14.90;99.90;;;;;;5019048;28;20181;-41
2022/06/17 03:49:58;;;;;;;3.40;3.10;;;14.80;99.90;;;;;;5035818;28;20260;-41
2022/06/17 03:52:36;;;;;;;4.77;2.80;;;14.80;99.90;;;;;;5003887;28;20269;-41
2022/06/17 03:55:15;;;;;;;3.57;3.00;;;14.80;99.90;;;;;;5024620;28;20209;-41
2022/06/17 03:57:45;;;;;;;3.50;2.57;;;14.80;99.90;;;;;;5015991;28;20256;-41
2022/06/17 04:00:43;;;;;;;4.20;3.00;;;14.90;99.90;;;;;;5015989;28;20199;-40
2022/06/17 04:03:17;;;;;;;4.50;3.07;;;14.80;99.90;;;;;;4999728;28;20258;-41
2022/06/17 04:05:49;;;;;;;3.07;2.87;;;14.80;99.90;;;;;;5017600;28;20193;-41
2022/06/17 04:08:15;;;;;;;7.03;3.30;;;14.80;99.90;;;;;;5018986;28;20232;-41
2022/06/17 04:10:44;;;;;;;4.63;3.10;;;14.80;99.90;;;;;;5035608;28;20205;-41
2022/06/17 04:13:16;;;;;;;3.90;3.50;;;14.80;99.90;;;;;;5019146;28;20185;-40
2022/06/17 04:16:32;;;;;;;3.43;3.00;;;14.80;99.90;;;;;;5034635;28;20174;-41
2022/06/17 04:19:23;;;;;;;5.07;3.03;;;15.00;99.90;;;;;;5034061;28;20225;-41
2022/06/17 04:21:58;;;;;;;5.13;3.23;;;15.00;99.90;;;;;;5035293;28;20266;-38
2022/06/17 04:24:27;;;;;;;4.40;3.13;;;15.00;99.90;;;;;;5035174;28;20214;-38
2022/06/17 04:27:13;;;;;;;3.70;3.20;;;15.00;99.90;;;;;;5020687;28;20185;-41
2022/06/17 04:29:46;;;;;;;5.90;3.43;;;15.00;99.90;;;;;;5018584;28;20221;-40
2022/06/17 04:32:15;;;;;;;7.80;3.40;;;15.00;99.90;;;;;;5035086;28;20185;-40
2022/06/17 04:34:41;;;;;;;5.70;3.50;;;15.10;99.90;;;;;;5018767;28;20188;-40
2022/06/17 04:37:17;;;;;;;4.00;3.03;;;15.20;99.90;;;;;;5034593;28;20181;-41
2022/06/17 04:40:03;;;;;;;5.43;3.00;;;15.20;99.90;;;;;;5037829;28;20210;-41
2022/06/17 04:42:40;;;;;;;3.50;2.97;;;15.20;99.90;;;;;;5034780;28;20213;-40
2022/06/17 04:45:21;;;;;;;3.07;2.77;;;15.20;99.90;;;;;;5018547;28;20186;-41
2022/06/17 04:47:48;;;;;;;3.37;3.00;;;15.30;99.90;;;;;;5034609;28;20681;-41
2022/06/17 04:50:26;;;;;;;4.17;3.77;;;15.30;99.90;;;;;;5020418;28;20212;-41
2022/06/17 04:52:55;;;;;;;3.80;3.50;;;15.30;99.90;;;;;;5034837;28;20204;-39
2022/06/17 04:55:38;;;;;;;4.33;3.40;;;15.30;99.90;;;;;;5036413;28;20186;-38
2022/06/17 04:58:14;;;;;;;3.30;3.00;;;15.40;99.90;;;;;;5032416;28;20265;-41
2022/06/17 05:00:45;;;;;;;5.37;3.63;;;15.40;99.90;;;;;;5014700;28;20179;-38
2022/06/17 05:03:11;;;;;;;4.17;3.77;;;15.50;99.90;;;;;;5014900;28;20178;-40
2022/06/17 05:06:07;;;;;;;4.23;3.83;;;15.60;99.90;;;;;;5015753;28;20179;-39
2022/06/17 05:08:45;;;;;;;4.43;3.43;;;15.70;99.90;;;;;;5015996;28;20211;-41
2022/06/17 05:11:48;;;;;;;4.53;4.10;;;15.80;99.90;;;;;;5015747;28;20174;-41
2022/06/17 05:14:19;;;;;;;5.23;4.00;;;15.80;99.90;;;;;;4973176;28;20261;-39
2022/06/17 05:16:45;;;;;;;3.80;3.50;;;15.80;99.90;;;;;;5019222;28;20173;-41
2022/06/17 05:19:14;;;;;;;3.70;3.40;;;15.90;99.90;;;;;;5020016;28;20225;-41
2022/06/17 05:21:40;;;;;;;4.17;3.77;;;15.90;99.90;;;;;;5035202;28;20206;-39
2022/06/17 05:24:12;;;;;;;4.33;3.80;;;16.00;99.90;;;;;;5035079;28;20253;-41
2022/06/17 05:26:38;;;;;;;6.03;4.10;;;16.20;99.90;;;;;;5035276;28;20182;-40
2022/06/17 05:29:08;;;;;;;5.70;3.97;;;16.30;99.90;;;;;;5068553;28;20221;-40
2022/06/17 05:31:39;;;;;;;4.63;4.00;;;16.40;99.90;;;;;;5013069;28;20181;-41
2022/06/17 05:34:06;;;;;;;4.30;3.67;;;16.40;99.90;;;;;;5018520;28;20190;-41
2022/06/17 05:36:32;;;;;;;4.17;3.80;;;16.50;99.90;;;;;;5035303;28;20293;-39
2022/06/17 05:38:58;;;;;;;6.43;3.83;;;16.70;99.90;;;;;;5033694;28;20205;-39
2022/06/17 05:41:25;;;;;;;5.87;4.17;;;16.90;99.90;;;;;;5057581;28;20186;-39
2022/06/17 05:43:54;;;;;;;6.63;4.17;;;17.10;99.90;;;;;;5017080;28;20189;-40
2022/06/17 05:46:43;;;;;;;5.23;3.90;;;17.20;99.90;;;;;;5031336;28;20189;-40
2022/06/17 05:49:39;;;;;;;4.70;4.00;;;17.20;99.90;;;;;;4987659;28;20201;-39
2022/06/17 05:52:28;;;;;;;4.17;3.73;;;17.40;99.90;;;;;;5040754;28;20201;-41
2022/06/17 05:55:04;;;;;;;4.97;4.00;;;17.50;99.90;;;;;;5036254;28;20178;-39
2022/06/17 05:57:30;;;;;;;4.57;4.17;;;17.60;99.90;;;;;;5036715;28;20170;-39
2022/06/17 05:59:57;;;;;;;6.27;4.43;;;17.60;99.90;;;;;;5016768;28;20194;-41
2022/06/17 06:02:24;;;;;;;5.50;4.33;;;17.80;99.90;;;;;;5016586;28;20601;-41
2022/06/17 06:05:01;;;;;;;4.13;3.72;;;17.90;99.90;;;;;;5017960;28;20181;-39
2022/06/17 06:07:30;;;;;;;4.40;4.00;;;18.10;99.90;;;;;;5031589;28;20186;-41
2022/06/17 06:09:57;;;;;;;4.47;4.07;;;18.20;99.90;;;;;;5032304;28;20205;-41
2022/06/17 06:12:53;;;;;;;4.38;3.65;;;18.30;99.90;;;;;;5055924;28;20170;-41
2022/06/17 06:15:12;;;;;;;3.95;3.40;;;18.40;99.90;;;;;;5032543;28;20178;-40
2022/06/17 06:17:47;;;;;;;3.95;3.20;;;18.50;99.90;;;;;;5032973;28;20180;-40
2022/06/17 06:20:15;;;;;;;5.55;3.40;;;18.70;99.90;;;;;;5013580;28;20238;-36
2022/06/17 06:22:42;;;;;;;5.20;4.05;;;18.80;99.90;;;;;;4997183;28;20175;-33
2022/06/17 06:25:13;;;;;;;3.88;3.35;;;18.90;99.90;;;;;;5005523;28;20221;-35
2022/06/17 06:27:40;;;;;;;5.55;3.42;;;19.00;99.90;;;;;;5032778;28;20182;-38
2022/06/17 06:30:06;;;;;;;4.40;3.67;;;19.10;99.90;;;;;;5032688;28;20247;-36
2022/06/17 06:32:32;;;;;;;3.50;3.20;;;19.30;99.90;;;;;;5032842;28;20181;-34
2022/06/17 06:35:15;;;;;;;4.05;3.25;;;19.50;99.90;;;;;;5017495;28;20188;-35
2022/06/17 06:37:41;;;;;;;4.88;3.20;;;19.60;99.90;;;;;;5032485;28;20264;-32
2022/06/17 06:40:07;;;;;;;3.40;3.10;;;19.70;99.90;;;;;;5032390;28;20411;-35
2022/06/17 06:42:34;;;;;;;4.53;3.08;;;19.70;99.90;;;;;;5015829;28;20178;-38
2022/06/17 06:45:33;;;;;;;3.05;2.72;;;19.70;99.90;;;;;;4986606;28;20356;-35
2022/06/17 06:48:04;;;;;;;6.05;3.13;;;19.90;99.90;;;;;;5032489;28;20189;-36
2022/06/17 06:50:32;;;;;;;5.72;3.10;;;20.00;99.90;;;;;;5015817;28;20254;-37
2022/06/17 06:52:59;;;;;;;3.83;3.00;;;20.00;99.90;;;;;;5016253;28;20181;-37
2022/06/17 06:55:26;;;;;;;5.28;2.92;;;20.10;99.90;;;;;;5040796;28;20192;-37
2022/06/17 06:57:58;;;;;;;4.13;2.78;;;20.30;99.90;;;;;;5039597;28;20178;-35
2022/06/17 07:00:37;;;;;;;4.50;3.20;;;20.40;99.90;;;;;;5022134;28;20198;-38
2022/06/17 07:03:06;;;;;;;5.00;3.20;;;20.60;99.90;;;;;;5013682;28;20186;-37
2022/06/17 07:05:34;;;;;;;5.63;3.45;;;20.90;99.90;;;;;;5012869;28;20667;-35
2022/06/17 07:08:00;;;;;;;6.65;3.42;;;21.00;99.90;;;;;;5012843;28;20182;-37
2022/06/17 07:10:30;;;;;;;3.05;2.83;;;21.20;99.90;;;;;;5012572;28;20229;-37
2022/06/17 07:12:57;;;;;;;4.13;3.35;;;21.40;99.90;;;;;;5013222;28;20253;-38
2022/06/17 07:15:23;;;;;;;3.88;3.17;;;21.50;99.90;;;;;;5065680;28;20178;-37
2022/06/17 07:18:10;;;;;;;3.13;2.83;;;21.60;99.90;;;;;;5024745;28;20178;-38
2022/06/17 07:20:42;;;;;;;3.75;2.97;;;21.50;99.90;;;;;;5034784;28;20251;-37
2022/06/17 07:23:12;;;;;;;3.42;2.80;;;21.70;99.90;;;;;;5036235;28;20221;-36
2022/06/17 07:25:38;;;;;;;4.40;3.30;;;21.90;99.90;;;;;;5019149;28;20218;-35
2022/06/17 07:28:04;;;;;;;2.70;2.50;;;22.10;99.90;;;;;;5036066;28;20174;-37
2022/06/17 07:30:32;;;;;;;4.35;2.80;;;22.20;99.90;;;;;;5017017;28;20237;-40
2022/06/17 07:32:58;;;;;;;4.63;2.92;;;22.40;99.30;;;;;;5016378;28;20175;-39
2022/06/17 07:35:24;;;;;;;3.97;2.80;;;22.50;99.50;;;;;;5015795;28;20189;-39
2022/06/17 07:40:35;;;;;;;3.63;3.10;;;22.60;99.70;;;;;;5036142;28;20281;-36
2022/06/17 07:43:01;;;;;;;8.48;3.65;;;22.90;99.90;;;;;;5054283;28;20196;-35
2022/06/17 07:45:33;;;;;;;16.40;6.07;;;23.00;99.90;;;;;;5037098;28;20180;-38
2022/06/17 07:48:02;;;;;;;7.97;4.00;;;23.10;99.90;;;;;;5022738;28;20197;-37
2022/06/17 07:50:32;;;;;;;4.03;2.95;;;23.10;99.90;;;;;;5035602;28;20242;-35
2022/06/17 07:53:00;;;;;;;4.30;2.50;;;23.00;99.80;;;;;;5035585;28;20201;-38
2022/06/17 07:55:26;;;;;;;3.15;2.85;;;23.00;99.90;;;;;;5012530;28;20190;-39
2022/06/17 07:57:52;;;;;;;4.30;2.80;;;23.10;99.90;;;;;;5020293;28;20269;-41
2022/06/17 08:00:22;;;;;;;3.42;2.72;;;23.10;99.90;;;;;;5035157;28;20190;-41
2022/06/17 08:02:48;;;;;;;3.13;2.88;;;23.30;99.60;;;;;;5060265;28;20176;-42
2022/06/17 08:05:16;;;;;;;3.40;2.90;;;23.50;99.30;;;;;;5034874;28;20177;-41
2022/06/17 08:07:45;;;;;;;4.05;2.47;;;23.70;99.50;;;;;;5052381;28;20255;-41
2022/06/17 08:10:18;;;;;;;3.03;2.50;;;23.80;99.10;;;;;;5035249;28;20212;-42
2022/06/17 08:12:46;;;;;;;3.67;2.80;;;23.90;98.90;;;;;;5016995;28;20155;-42
2022/06/17 08:15:17;;;;;;;3.80;2.75;;;24.20;98.90;;;;;;5035916;28;20312;-42
2022/06/17 08:17:43;;;;;;;3.60;3.00;;;24.30;99.10;;;;;;5036077;28;20250;-42
2022/06/17 08:20:21;;;;;;;4.80;2.90;;;24.40;98.70;;;;;;5036341;28;20201;-42
2022/06/17 08:22:48;;;;;;;3.42;2.80;;;24.50;98.80;;;;;;5036130;28;20177;-42
2022/06/17 08:25:14;;;;;;;3.03;2.53;;;24.60;97.80;;;;;;5019456;28;20181;-41
2022/06/17 08:27:44;;;;;;;3.28;2.78;;;24.70;98.10;;;;;;5034669;28;20178;-40
2022/06/17 08:30:11;;;;;;;4.13;2.75;;;24.70;98.00;;;;;;5035748;28;20198;-42
2022/06/17 08:32:45;;;;;;;3.38;2.45;;;24.90;97.90;;;;;;5039917;28;20193;-42
2022/06/17 08:35:15;;;;;;;4.18;2.60;;;25.10;98.00;;;;;;5056916;28;20181;-42
2022/06/17 08:37:43;;;;;;;3.90;2.90;;;25.40;96.90;;;;;;5018153;28;20173;-38
2022/06/17 08:40:48;;;;;;;3.67;2.70;;;25.30;97.60;;;;;;5034772;28;20224;-38
2022/06/17 08:43:42;;;;;;;2.95;2.65;;;25.40;97.40;;;;;;5017740;28;20178;-40
2022/06/17 08:46:13;;;;;;;3.03;2.50;;;25.50;96.30;;;;;;5031703;28;20185;-39
2022/06/17 08:49:07;;;;;;;2.60;2.40;;;25.60;97.00;;;;;;5052234;28;20192;-38
2022/06/17 08:51:49;;;;;;;5.15;2.63;;;25.80;97.30;;;;;;5039787;28;20264;-41
2022/06/17 08:54:36;;;;;;;4.45;3.00;;;26.00;97.10;;;;;;5033000;28;20245;-41
2022/06/17 08:57:17;;;;;;;3.90;2.90;;;25.90;95.90;;;;;;5017053;28;20293;-40
2022/06/17 09:00:05;;;;;;;3.20;2.90;;;25.70;96.80;;;;;;5033453;28;20228;-39
2022/06/17 09:02:42;;;;;;;3.55;2.58;;;26.00;96.40;;;;;;5014661;28;20185;-41
2022/06/17 09:05:22;;;;;;;3.88;2.85;;;26.20;96.10;;;;;;5014291;28;20260;-40
2022/06/17 09:08:17;;;;;;;3.13;2.40;;;26.40;95.60;;;;;;5016659;28;20237;-42
2022/06/17 09:10:53;;;;;;;3.65;2.95;;;26.40;95.50;;;;;;5042406;28;20190;-40
2022/06/17 09:13:42;;;;;;;4.18;2.70;;;26.50;95.00;;;;;;5026622;28;20196;-42
2022/06/17 09:16:47;;;;;;;3.05;2.67;;;26.80;94.50;;;;;;5032437;28;20174;-39
2022/06/17 09:19:22;;;;;;;2.97;2.60;;;26.90;93.60;;;;;;5030452;28;20205;-42
2022/06/17 09:21:52;;;;;;;2.92;2.55;;;26.90;95.70;;;;;;5034903;28;20186;-42
2022/06/17 09:24:25;;;;;;;3.22;2.38;;;27.00;94.50;;;;;;5041119;28;20261;-41
2022/06/17 09:27:01;;;;;;;4.20;2.60;;;27.10;94.90;;;;;;5034851;28;20182;-40
2022/06/17 09:29:42;;;;;;;3.58;2.53;;;27.30;93.80;;;;;;5050887;28;20340;-40
2022/06/17 09:32:18;;;;;;;4.93;2.50;;;27.50;93.40;;;;;;5033060;28;20188;-38
2022/06/17 09:34:59;;;;;;;4.00;2.63;;;27.50;93.00;;;;;;5032848;28;20181;-40
2022/06/17 09:37:41;;;;;;;4.25;2.50;;;27.40;92.10;;;;;;5031075;28;20208;-40
2022/06/17 09:40:44;;;;;;;2.88;2.67;;;27.40;93.10;;;;;;5012319;28;20201;-43
2022/06/17 09:43:36;;;;;;;2.97;2.75;;;27.40;92.30;;;;;;5042129;28;20217;-42
2022/06/17 09:46:27;;;;;;;3.53;2.85;;;27.60;92.80;;;;;;5015063;28;20197;-42
2022/06/17 09:49:08;;;;;;;3.70;2.60;;;27.70;91.70;;;;;;5033095;28;20217;-42
2022/06/17 09:51:38;;;;;;;4.28;2.58;;;27.30;92.30;;;;;;5033516;28;20201;-41
2022/06/17 09:54:15;;;;;;;3.53;2.17;;;27.20;91.80;;;;;;5032835;28;20220;-42
2022/06/17 09:57:08;;;;;;;3.50;2.40;;;27.50;91.90;;;;;;5032936;28;20181;-43
2022/06/17 09:59:43;;;;;;;2.38;2.17;;;27.70;93.30;;;;;;5037594;28;20254;-43
2022/06/17 10:02:32;;;;;;;4.78;2.58;;;27.90;92.40;;;;;;5052844;28;20177;-43
2022/06/17 10:05:01;;;;;;;3.85;2.60;;;28.20;92.10;;;;;;5048817;28;20177;-42
2022/06/17 10:07:41;;;;;;;3.92;2.65;;;28.50;92.10;;;;;;5016662;28;20189;-43
2022/06/17 10:10:36;;;;;;;3.38;2.17;;;28.80;90.90;;;;;;5032310;28;20206;-43
2022/06/17 10:13:02;;;;;;;3.60;2.70;;;29.00;90.80;;;;;;5016193;28;20206;-43
2022/06/17 10:15:37;;;;;;;4.65;2.78;;;29.20;90.80;;;;;;5051865;28;20197;-37
2022/06/17 10:21:15;;;;;;;3.05;2.67;;;29.30;90.40;;;;;;5052537;28;20166;-40
2022/06/17 10:23:43;;;;;;;3.28;2.67;;;29.10;90.00;;;;;;5034167;28;20177;-40
2022/06/17 10:26:19;;;;;;;3.20;2.50;;;29.00;89.70;;;;;;5050825;28;20194;-42
2022/06/17 10:29:06;;;;;;;3.13;2.13;;;29.00;90.70;;;;;;5048198;28;20280;-39
2022/06/17 10:31:39;;;;;;;2.42;2.22;;;29.20;89.70;;;;;;5031409;28;20177;-38
2022/06/17 10:34:27;;;;;;;2.67;2.47;;;29.50;87.70;;;;;;5050023;28;20237;-40
2022/06/17 10:36:57;;;;;;;3.50;2.50;;;29.70;88.40;;;;;;5033983;28;20154;-40
2022/06/17 10:39:26;;;;;;;2.85;2.42;;;29.50;89.00;;;;;;5033164;28;20278;-40
2022/06/17 10:41:52;;;;;;;2.80;2.10;;;29.30;86.40;;;;;;5070288;28;20180;-40
2022/06/17 10:44:22;;;;;;;3.03;2.25;;;29.60;89.10;;;;;;5035449;28;20204;-40
2022/06/17 10:47:12;;;;;;;3.47;2.38;;;29.80;87.30;;;;;;5034891;28;20178;-41
2022/06/17 10:49:43;;;;;;;2.97;1.98;;;29.40;82.60;;;;;;5038475;28;20209;-38
2022/06/17 10:52:18;;;;;;;1.90;1.80;;;29.40;86.10;;;;;;5036577;28;20177;-41
2022/06/17 10:54:46;;;;;;;2.55;2.05;;;29.50;85.60;;;;;;5033055;28;20231;-38
2022/06/17 10:57:25;;;;;;;2.75;1.80;;;29.60;84.50;;;;;;5062814;28;20169;-41
2022/06/17 10:59:52;;;;;;;1.70;1.60;;;29.40;81.40;;;;;;5039080;28;20194;-40
2022/06/17 11:02:33;;;;;;;1.70;1.60;;;29.10;78.90;;;;;;5039393;28;20684;-39
2022/06/17 11:05:04;;;;;;;2.67;1.70;;;29.50;78.90;;;;;;5040306;28;20524;-41
2022/06/17 11:07:50;;;;;;;2.90;2.10;;;29.80;81.00;;;;;;5077151;28;20272;-41
2022/06/17 11:10:20;;;;;;;2.45;1.90;;;30.20;82.40;;;;;;5042284;28;20239;-42
2022/06/17 11:13:00;;;;;;;2.85;1.73;;;30.30;80.80;;;;;;5047551;28;20259;-40
2022/06/17 11:15:30;;;;;;;1.65;1.55;;;30.40;78.70;;;;;;5038753;28;20255;-41
2022/06/17 11:18:20;;;;;;;1.60;1.50;;;30.70;77.80;;;;;;5038913;28;20178;-41
2022/06/17 11:20:58;;;;;;;1.90;1.70;;;30.70;80.80;;;;;;5057104;28;20190;-39
2022/06/17 11:23:35;;;;;;;1.63;1.52;;;30.90;78.40;;;;;;5041105;28;20221;-44
2022/06/17 11:26:18;;;;;;;1.90;1.80;;;31.10;76.90;;;;;;5052280;28;20308;-39
2022/06/17 11:28:50;;;;;;;1.73;1.40;;;31.20;76.20;;;;;;5040020;28;20259;-39
2022/06/17 11:31:25;;;;;;;2.00;1.80;;;31.40;76.10;;;;;;5057081;28;20169;-40
2022/06/17 11:33:52;;;;;;;2.38;2.00;;;31.40;79.00;;;;;;5039030;28;20181;-39
2022/06/17 11:36:29;;;;;;;2.08;1.88;;;31.50;78.10;;;;;;5038700;28;20212;-40
2022/06/17 11:41:52;;;;;;;3.45;2.00;;;31.20;75.20;;;;;;5108826;22;20249;-37
2022/06/17 11:44:20;;;;;;;2.33;2.13;;;31.20;75.50;;;;;;5002404;28;20209;-37
2022/06/17 11:46:52;;;;;;;1.98;1.77;;;31.10;77.10;;;;;;5002929;28;20179;-38
2022/06/17 11:49:20;;;;;;;2.03;1.70;;;31.20;77.10;;;;;;5018126;28;20264;-40
2022/06/17 11:52:09;;;;;;;2.20;2.00;;;31.10;78.00;;;;;;4999677;28;20171;-38
2022/06/17 11:54:48;;;;;;;2.97;2.00;;;31.20;76.50;;;;;;4999976;28;20237;-38
2022/06/17 11:57:20;;;;;;;2.78;1.50;;;31.20;75.80;;;;;;4983249;28;20179;-38
2022/06/17 11:59:52;;;;;;;2.78;1.70;;;31.20;75.10;;;;;;5017095;28;20198;-40
2022/06/17 12:02:19;;;;;;;1.70;1.58;;;31.10;76.20;;;;;;4999587;28;20439;-36
2022/06/17 12:04:51;;;;;;;1.65;1.55;;;31.30;78.00;;;;;;4999218;28;20183;-37
2022/06/17 12:07:35;;;;;;;2.97;1.70;;;31.50;77.50;;;;;;4995555;28;20206;-37
2022/06/17 12:10:23;;;;;;;2.05;1.70;;;31.80;75.80;;;;;;4979929;28;20215;-38
2022/06/17 12:12:52;;;;;;;2.30;1.88;;;31.60;72.50;;;;;;4996497;28;20175;-40
2022/06/17 12:15:26;;;;;;;2.10;1.90;;;31.20;74.10;;;;;;4979878;28;20202;-38
2022/06/17 12:17:56;;;;;;;1.92;1.75;;;31.20;75.40;;;;;;4996068;28;20178;-38
2022/06/17 12:20:30;;;;;;;2.35;1.88;;;31.30;75.60;;;;;;4979673;28;20698;-39
2022/06/17 12:23:06;;;;;;;1.98;1.60;;;31.40;76.90;;;;;;4996062;28;20269;-37
2022/06/17 12:25:56;;;;;;;3.13;1.58;;;31.60;73.30;;;;;;4995389;28;20194;-38
2022/06/17 12:28:33;;;;;;;2.80;1.80;;;31.50;73.40;;;;;;4995787;28;20183;-39
2022/06/17 12:31:24;;;;;;;2.70;1.63;;;31.80;74.70;;;;;;4995846;28;20241;-38
2022/06/17 12:34:15;;;;;;;2.53;1.55;;;31.80;71.90;;;;;;5013275;28;20183;-39
2022/06/17 12:36:58;;;;;;;1.70;1.60;;;31.60;71.60;;;;;;4995288;28;20322;-37
2022/06/17 12:39:47;;;;;;;1.70;1.60;;;32.00;74.30;;;;;;4995477;28;20194;-38
2022/06/17 12:42:25;;;;;;;2.05;1.80;;;32.20;71.30;;;;;;4995833;28;20184;-39
2022/06/17 12:45:03;;;;;;;2.10;1.75;;;32.20;72.00;;;;;;4994884;28;20671;-37
2022/06/17 12:47:44;;;;;;;1.75;1.65;;;32.00;70.30;;;;;;4995793;28;20182;-38
2022/06/17 12:53:53;;;;;;;2.22;1.60;;;31.80;71.00;;;;;;4995256;28;20179;-37
2022/06/17 12:56:35;;;;;;;1.38;1.27;;;31.60;74.80;;;;;;4979318;28;20190;-41
2022/06/17 12:59:31;;;;;;;3.05;1.50;;;32.00;71.80;;;;;;4995692;28;20191;-36
2022/06/17 13:02:41;;;;;;;2.38;1.70;;;32.40;70.80;;;;;;5012798;28;20187;-39
2022/06/17 13:05:35;;;;;;;2.30;1.48;;;32.90;72.20;;;;;;4994714;28;20183;-38
2022/06/17 13:08:26;;;;;;;4.18;2.28;;;33.20;70.70;;;;;;4995128;28;20183;-38
2022/06/17 13:11:11;;;;;;;1.70;1.60;;;33.30;71.30;;;;;;4995017;28;20234;-41
2022/06/17 13:14:01;;;;;;;1.92;1.60;;;33.10;71.30;;;;;;5012857;28;20191;-37
2022/06/17 13:16:53;;;;;;;1.80;1.70;;;33.20;71.00;;;;;;4995050;28;20242;-37
2022/06/17 13:19:19;;;;;;;1.60;1.50;;;33.30;69.70;;;;;;4994410;28;20270;-38
2022/06/17 13:22:03;;;;;;;2.05;1.52;;;33.00;71.00;;;;;;4995283;28;20178;-36
2022/06/17 13:25:05;;;;;;;1.30;1.20;;;32.70;73.30;;;;;;5012258;28;20191;-37
2022/06/17 13:27:37;;;;;;;2.55;1.80;;;32.80;69.60;;;;;;4994806;28;20185;-37
2022/06/17 13:30:18;;;;;;;1.55;1.45;;;32.90;69.90;;;;;;5012257;28;20223;-37
2022/06/17 13:33:03;;;;;;;2.60;1.80;;;33.20;70.00;;;;;;4978637;28;20256;-42
2022/06/17 13:35:33;;;;;;;2.97;1.70;;;33.20;67.80;;;;;;4994547;28;20182;-36
2022/06/17 13:38:09;;;;;;;1.88;1.50;;;33.10;69.30;;;;;;4994597;28;20221;-40
2022/06/17 13:40:50;;;;;;;2.05;1.48;;;33.30;69.80;;;;;;4994556;28;20211;-37
2022/06/17 13:43:22;;;;;;;2.67;1.45;;;33.40;68.20;;;;;;4994952;28;20179;-38
2022/06/17 13:46:04;;;;;;;1.73;1.40;;;33.30;68.30;;;;;;4994294;28;20252;-36